Time;durP1;ratioP1;P1;durP2;ratioP2;P2;SDS_P1;SDS_P2;PMS_P1;PMS_P2;Temp;Humidity;BMP_temperature;BMP_pressure;BME280_temperature;BME280_humidity;BME280_pressure;Samples;Min_cycle;Max_cycle;Signal;HPM_P1;HPM_P2
2022/09/10 00:00:53;;;;;;;22.35;12.70;;;;;;;;;;4991033;28;99433;-70
2022/09/10 00:03:20;;;;;;;20.50;13.10;;;;;;;;;;4975862;28;98564;-70
2022/09/10 00:05:46;;;;;;;16.58;12.32;;;;;;;;;;4988874;28;99355;-71
2022/09/10 00:08:13;;;;;;;23.02;12.65;;;;;;;;;;4991160;28;98594;-71
2022/09/10 00:10:40;;;;;;;18.95;11.90;;;;;;;;;;4991248;28;100146;-70
2022/09/10 00:13:08;;;;;;;19.92;12.23;;;;;;;;;;4991524;28;99481;-70
2022/09/10 00:15:41;;;;;;;14.65;10.18;;;;;;;;;;4992317;28;97806;-70
2022/09/10 00:18:08;;;;;;;23.77;11.45;;;;;;;;;;4991342;28;99463;-71
2022/09/10 00:20:43;;;;;;;24.30;10.13;;;;;;;;;;4975538;28;100213;-70
2022/09/10 00:23:10;;;;;;;19.20;10.15;;;;;;;;;;4986398;28;99487;-71
2022/09/10 00:25:37;;;;;;;20.70;10.15;;;;;;;;;;4993938;28;100764;-71
2022/09/10 00:28:04;;;;;;;21.75;10.57;;;;;;;;;;4991379;28;98492;-71
2022/09/10 00:30:30;;;;;;;21.73;10.63;;;;;;;;;;4990170;28;99288;-71
2022/09/10 00:32:57;;;;;;;16.13;10.10;;;;;;;;;;4990488;28;99079;-70
2022/09/10 00:35:23;;;;;;;14.95;11.15;;;;;;;;;;4988146;28;98475;-70
2022/09/10 00:37:50;;;;;;;20.15;10.90;;;;;;;;;;4971220;28;99028;-70
2022/09/10 00:40:16;;;;;;;22.45;9.95;;;;;;;;;;4988295;28;99581;-70
2022/09/10 00:42:42;;;;;;;21.73;10.27;;;;;;;;;;4972096;28;98613;-71
2022/09/10 00:45:30;;;;;;;23.10;10.50;;;;;;;;;;5002687;28;100008;-71
2022/09/10 00:47:59;;;;;;;15.60;10.02;;;;;;;;;;4972536;28;100272;-71
2022/09/10 00:50:28;;;;;;;25.42;10.57;;;;;;;;;;4971985;28;99632;-71
2022/09/10 00:52:56;;;;;;;17.33;10.10;;;;;;;;;;5001766;28;101934;-70
2022/09/10 00:55:23;;;;;;;21.30;11.48;;;;;;;;;;4977352;28;98573;-71
2022/09/10 00:57:51;;;;;;;29.85;12.80;;;;;;;;;;4991090;28;99057;-71
2022/09/10 01:00:17;;;;;;;24.98;12.10;;;;;;;;;;4990473;28;99304;-73
2022/09/10 01:02:43;;;;;;;25.17;12.18;;;;;;;;;;4989345;28;98538;-71
2022/09/10 01:05:11;;;;;;;20.52;12.57;;;;;;;;;;4990254;28;100904;-71
2022/09/10 01:07:38;;;;;;;22.35;13.98;;;;;;;;;;4988649;28;102261;-71
2022/09/10 01:10:13;;;;;;;21.55;14.95;;;;;;;;;;4980232;28;98584;-70
2022/09/10 01:13:02;;;;;;;27.52;14.82;;;;;;;;;;4974924;28;100215;-71
2022/09/10 01:15:47;;;;;;;27.00;15.25;;;;;;;;;;4989316;28;98530;-70
2022/09/10 01:18:33;;;;;;;30.95;15.43;;;;;;;;;;4969851;28;101408;-70
2022/09/10 01:21:09;;;;;;;24.38;15.32;;;;;;;;;;4968692;28;101423;-70
2022/09/10 01:23:42;;;;;;;27.85;15.73;;;;;;;;;;4971283;28;98801;-70
2022/09/10 01:26:27;;;;;;;27.52;15.57;;;;;;;;;;4971163;28;98799;-70
2022/09/10 01:29:01;;;;;;;36.50;17.35;;;;;;;;;;4979045;28;99975;-70
2022/09/10 01:31:38;;;;;;;29.33;17.85;;;;;;;;;;4990697;28;97848;-71
2022/09/10 01:34:11;;;;;;;33.35;18.95;;;;;;;;;;4991397;28;100404;-70
2022/09/10 01:36:39;;;;;;;30.25;18.40;;;;;;;;;;4990645;28;98507;-70
2022/09/10 01:39:06;;;;;;;30.48;19.05;;;;;;;;;;4981746;28;99389;-71
2022/09/10 01:41:33;;;;;;;38.65;18.67;;;;;;;;;;4969898;28;99213;-71
2022/09/10 01:44:10;;;;;;;33.60;20.63;;;;;;;;;;4969134;28;98877;-70
2022/09/10 01:46:48;;;;;;;39.35;20.75;;;;;;;;;;4975618;28;99214;-71
2022/09/10 01:49:35;;;;;;;30.77;19.67;;;;;;;;;;4987917;28;102027;-71
2022/09/10 01:52:24;;;;;;;33.50;19.58;;;;;;;;;;4977990;28;98567;-70
2022/09/10 01:55:09;;;;;;;28.52;16.60;;;;;;;;;;4988903;28;99020;-72
2022/09/10 01:57:57;;;;;;;33.08;19.73;;;;;;;;;;4991773;28;99532;-71
2022/09/10 02:00:32;;;;;;;36.28;20.15;;;;;;;;;;4988808;28;99239;-71
2022/09/10 02:03:10;;;;;;;37.03;20.58;;;;;;;;;;4981638;28;99347;-71
2022/09/10 02:05:38;;;;;;;32.45;18.55;;;;;;;;;;5001609;28;99754;-70
2022/09/10 02:08:10;;;;;;;37.63;20.77;;;;;;;;;;4969641;28;99950;-71
2022/09/10 02:10:51;;;;;;;36.67;23.33;;;;;;;;;;4984735;28;99800;-71
2022/09/10 02:13:19;;;;;;;36.08;22.30;;;;;;;;;;5002424;28;98542;-70
2022/09/10 02:15:58;;;;;;;39.15;21.33;;;;;;;;;;4970572;28;99261;-70
2022/09/10 02:18:31;;;;;;;37.75;20.58;;;;;;;;;;5001236;28;99223;-70
2022/09/10 02:20:59;;;;;;;32.10;20.92;;;;;;;;;;4992890;28;99817;-70
2022/09/10 02:23:27;;;;;;;36.03;21.30;;;;;;;;;;4970281;28;98773;-70
2022/09/10 02:25:54;;;;;;;35.55;22.27;;;;;;;;;;4968696;28;98571;-70
2022/09/10 02:28:26;;;;;;;34.97;21.55;;;;;;;;;;4970682;28;101100;-70
2022/09/10 02:30:53;;;;;;;33.35;22.25;;;;;;;;;;4986684;28;102461;-70
2022/09/10 02:33:19;;;;;;;39.47;24.27;;;;;;;;;;4988029;28;98610;-70
2022/09/10 02:35:47;;;;;;;37.03;24.40;;;;;;;;;;4988753;28;99177;-70
2022/09/10 02:38:15;;;;;;;34.35;24.27;;;;;;;;;;4980013;28;101434;-70
2022/09/10 02:40:42;;;;;;;35.15;22.75;;;;;;;;;;4988309;28;98718;-70
2022/09/10 02:43:08;;;;;;;35.38;25.08;;;;;;;;;;4969790;28;100258;-70
2022/09/10 02:45:37;;;;;;;37.58;26.52;;;;;;;;;;4969142;28;98501;-70
2022/09/10 02:48:04;;;;;;;39.70;26.33;;;;;;;;;;5002453;28;99313;-70
2022/09/10 02:50:32;;;;;;;37.95;26.85;;;;;;;;;;5001668;28;101667;-70
2022/09/10 02:53:00;;;;;;;33.22;26.15;;;;;;;;;;4967741;28;98534;-70
2022/09/10 02:55:26;;;;;;;37.42;26.73;;;;;;;;;;4973977;28;100019;-70
2022/09/10 02:57:53;;;;;;;33.90;26.40;;;;;;;;;;5000980;28;101734;-70
2022/09/10 03:00:20;;;;;;;43.25;27.42;;;;;;;;;;4967524;28;98511;-70
2022/09/10 03:02:49;;;;;;;40.38;28.73;;;;;;;;;;4971458;28;100230;-70
2022/09/10 03:05:16;;;;;;;43.95;28.27;;;;;;;;;;4969820;28;98525;-71
2022/09/10 03:07:45;;;;;;;47.53;31.27;;;;;;;;;;4969376;28;99244;-71
2022/09/10 03:10:11;;;;;;;43.65;29.65;;;;;;;;;;4986674;28;101155;-71
2022/09/10 03:12:38;;;;;;;39.78;29.95;;;;;;;;;;4977424;28;98242;-71
2022/09/10 03:15:05;;;;;;;44.50;29.73;;;;;;;;;;4980468;28;98599;-71
2022/09/10 03:17:32;;;;;;;38.90;28.92;;;;;;;;;;4992713;28;99008;-69
2022/09/10 03:19:58;;;;;;;34.17;26.13;;;;;;;;;;4990069;28;99266;-69
2022/09/10 03:22:25;;;;;;;46.35;29.45;;;;;;;;;;4983173;28;99786;-69
2022/09/10 03:24:53;;;;;;;40.70;29.83;;;;;;;;;;4982274;28;101013;-69
2022/09/10 03:27:19;;;;;;;45.65;30.27;;;;;;;;;;4985960;28;101031;-69
2022/09/10 03:29:46;;;;;;;38.13;28.92;;;;;;;;;;4997059;28;102041;-69
2022/09/10 03:32:13;;;;;;;34.92;27.60;;;;;;;;;;5011288;28;98591;-69
2022/09/10 03:34:39;;;;;;;42.50;30.13;;;;;;;;;;5010294;28;101716;-69
2022/09/10 03:37:05;;;;;;;39.47;28.73;;;;;;;;;;4975019;28;101282;-69
2022/09/10 03:39:33;;;;;;;44.97;30.60;;;;;;;;;;4987914;28;98587;-69
2022/09/10 03:42:02;;;;;;;41.40;30.52;;;;;;;;;;4975524;28;99042;-69
2022/09/10 03:44:29;;;;;;;44.28;32.63;;;;;;;;;;4987187;28;102838;-70
2022/09/10 03:46:56;;;;;;;44.10;31.40;;;;;;;;;;4990981;28;99138;-69
2022/09/10 03:49:22;;;;;;;39.05;28.88;;;;;;;;;;4991708;28;98990;-70
2022/09/10 03:51:49;;;;;;;35.63;28.23;;;;;;;;;;4991362;28;98491;-70
2022/09/10 03:54:15;;;;;;;40.40;29.48;;;;;;;;;;4990974;28;98962;-69
2022/09/10 03:56:43;;;;;;;36.10;30.48;;;;;;;;;;4989675;28;99321;-69
2022/09/10 03:59:09;;;;;;;35.67;28.10;;;;;;;;;;4991498;28;98876;-69
2022/09/10 04:01:35;;;;;;;40.13;31.20;;;;;;;;;;5008307;28;101692;-69
2022/09/10 04:04:04;;;;;;;36.10;29.52;;;;;;;;;;4985740;28;101280;-70
2022/09/10 04:06:34;;;;;;;41.35;30.17;;;;;;;;;;4992072;28;98520;-69
2022/09/10 04:09:00;;;;;;;42.42;32.33;;;;;;;;;;5025586;28;100089;-69
2022/09/10 04:11:27;;;;;;;41.72;30.15;;;;;;;;;;5021349;28;98909;-69
2022/09/10 04:13:55;;;;;;;40.15;28.98;;;;;;;;;;4991406;28;99475;-70
2022/09/10 04:16:22;;;;;;;37.97;28.50;;;;;;;;;;4989658;28;100351;-69
2022/09/10 04:18:49;;;;;;;39.72;30.75;;;;;;;;;;4985479;28;98618;-70
2022/09/10 04:21:16;;;;;;;40.42;30.45;;;;;;;;;;4988401;28;99277;-69
2022/09/10 04:23:45;;;;;;;47.60;30.92;;;;;;;;;;4989338;28;98420;-69
2022/09/10 04:26:13;;;;;;;43.65;30.88;;;;;;;;;;4992587;28;97734;-70
2022/09/10 04:28:40;;;;;;;46.30;32.63;;;;;;;;;;4990402;28;99490;-69
2022/09/10 04:31:06;;;;;;;41.95;30.83;;;;;;;;;;4994063;28;99485;-70
2022/09/10 04:33:33;;;;;;;38.33;30.85;;;;;;;;;;4975181;28;101210;-69
2022/09/10 04:36:00;;;;;;;51.33;34.88;;;;;;;;;;4986413;28;101823;-70
2022/09/10 04:38:29;;;;;;;46.90;33.00;;;;;;;;;;4989285;28;98550;-70
2022/09/10 04:40:56;;;;;;;47.92;33.83;;;;;;;;;;4990005;28;101742;-70
2022/09/10 04:43:24;;;;;;;47.10;32.47;;;;;;;;;;4990094;28;101948;-69
2022/09/10 04:45:51;;;;;;;53.47;35.95;;;;;;;;;;5023045;28;98526;-70
2022/09/10 04:48:18;;;;;;;43.10;31.98;;;;;;;;;;4991752;28;98866;-70
2022/09/10 04:50:46;;;;;;;48.05;33.63;;;;;;;;;;5019673;28;99592;-70
2022/09/10 04:53:37;;;;;;;42.33;31.75;;;;;;;;;;4975829;28;98425;-69
2022/09/10 04:56:03;;;;;;;38.95;30.20;;;;;;;;;;4989683;28;98496;-69
2022/09/10 04:58:32;;;;;;;43.83;32.55;;;;;;;;;;4972716;28;99474;-69
2022/09/10 05:01:04;;;;;;;47.22;32.25;;;;;;;;;;4970168;28;99703;-70
2022/09/10 05:03:30;;;;;;;37.30;28.80;;;;;;;;;;4970047;28;101717;-70
2022/09/10 05:05:57;;;;;;;37.55;28.25;;;;;;;;;;4969202;28;98588;-71
2022/09/10 05:08:24;;;;;;;38.25;29.67;;;;;;;;;;4975048;28;98822;-70
2022/09/10 05:10:55;;;;;;;31.23;25.23;;;;;;;;;;4976097;28;101098;-70
2022/09/10 05:13:23;;;;;;;36.45;28.90;;;;;;;;;;4992638;28;99136;-70
2022/09/10 05:15:49;;;;;;;36.72;29.15;;;;;;;;;;4989700;28;100505;-71
2022/09/10 05:18:15;;;;;;;30.88;26.35;;;;;;;;;;4989774;28;98534;-70
2022/09/10 05:20:43;;;;;;;37.25;30.38;;;;;;;;;;4988628;28;101781;-70
2022/09/10 05:23:10;;;;;;;42.55;30.38;;;;;;;;;;4988767;28;100069;-71
2022/09/10 05:25:38;;;;;;;35.47;27.95;;;;;;;;;;4985247;28;98876;-70
2022/09/10 05:28:05;;;;;;;39.05;28.75;;;;;;;;;;4981794;28;100962;-71
2022/09/10 05:30:31;;;;;;;36.40;29.70;;;;;;;;;;5022791;28;100413;-71
2022/09/10 05:33:01;;;;;;;34.63;28.25;;;;;;;;;;4988360;28;98661;-71
2022/09/10 05:35:32;;;;;;;37.22;28.60;;;;;;;;;;4991450;28;99034;-71
2022/09/10 05:37:59;;;;;;;37.00;31.05;;;;;;;;;;4989202;28;98517;-71
2022/09/10 05:40:28;;;;;;;34.60;28.30;;;;;;;;;;4989275;28;100975;-70
2022/09/10 05:42:54;;;;;;;35.67;27.73;;;;;;;;;;4988836;28;101893;-70
2022/09/10 05:45:22;;;;;;;34.35;29.27;;;;;;;;;;4981594;28;99211;-70
2022/09/10 05:47:49;;;;;;;42.92;30.25;;;;;;;;;;4976543;28;101521;-71
2022/09/10 05:50:19;;;;;;;39.55;30.33;;;;;;;;;;4989202;28;101285;-71
2022/09/10 05:52:46;;;;;;;37.80;30.60;;;;;;;;;;4975806;28;99084;-71
2022/09/10 05:55:13;;;;;;;42.90;30.42;;;;;;;;;;5001711;28;99133;-71
2022/09/10 05:57:39;;;;;;;39.13;29.95;;;;;;;;;;4980735;28;99390;-71
2022/09/10 06:00:09;;;;;;;33.10;27.80;;;;;;;;;;4989224;28;101176;-71
2022/09/10 06:02:48;;;;;;;37.25;29.42;;;;;;;;;;4986025;28;101027;-71
2022/09/10 06:05:49;;;;;;;33.70;28.17;;;;;;;;;;4979997;28;99456;-70
2022/09/10 06:08:19;;;;;;;36.92;29.15;;;;;;;;;;4986130;28;100832;-71
2022/09/10 06:10:59;;;;;;;36.30;27.65;;;;;;;;;;4984796;28;101643;-71
2022/09/10 06:13:28;;;;;;;32.38;26.52;;;;;;;;;;4987599;28;99405;-70
2022/09/10 06:15:55;;;;;;;32.92;26.40;;;;;;;;;;4987420;28;102321;-71
2022/09/10 06:18:22;;;;;;;32.35;26.98;;;;;;;;;;4988675;28;100444;-71
2022/09/10 06:20:48;;;;;;;28.35;24.88;;;;;;;;;;4993969;28;98667;-70
2022/09/10 06:23:16;;;;;;;29.15;25.05;;;;;;;;;;4987835;28;101641;-70
2022/09/10 06:25:44;;;;;;;35.03;25.98;;;;;;;;;;4988267;28;98810;-69
2022/09/10 06:28:11;;;;;;;31.38;25.38;;;;;;;;;;4974932;28;100170;-70
2022/09/10 06:30:40;;;;;;;31.23;24.42;;;;;;;;;;4969898;28;98477;-69
2022/09/10 06:33:06;;;;;;;27.65;24.50;;;;;;;;;;4996783;28;99794;-70
2022/09/10 06:35:34;;;;;;;28.15;23.60;;;;;;;;;;4992729;28;101628;-70
2022/09/10 06:38:01;;;;;;;30.08;23.75;;;;;;;;;;4980654;28;101922;-70
2022/09/10 06:40:28;;;;;;;32.42;24.13;;;;;;;;;;4973112;28;98629;-69
2022/09/10 06:42:54;;;;;;;28.27;22.88;;;;;;;;;;4976753;28;101839;-69
2022/09/10 06:45:39;;;;;;;31.25;23.85;;;;;;;;;;4966232;28;98595;-70
2022/09/10 06:48:26;;;;;;;29.90;24.13;;;;;;;;;;4973854;28;100200;-69
2022/09/10 06:51:14;;;;;;;28.75;22.65;;;;;;;;;;4984266;28;99456;-70
2022/09/10 06:53:41;;;;;;;25.30;22.73;;;;;;;;;;5010492;28;98534;-70
2022/09/10 06:56:10;;;;;;;25.33;21.85;;;;;;;;;;4988506;28;100907;-70
2022/09/10 06:58:38;;;;;;;29.02;23.30;;;;;;;;;;5001692;28;99227;-70
2022/09/10 07:01:09;;;;;;;27.52;21.85;;;;;;;;;;4995036;28;98735;-70
2022/09/10 07:03:42;;;;;;;24.42;21.90;;;;;;;;;;4990622;28;101636;-70
2022/09/10 07:06:10;;;;;;;31.05;22.52;;;;;;;;;;4985327;28;98603;-70
2022/09/10 07:08:38;;;;;;;30.75;22.65;;;;;;;;;;4989420;28;98946;-71
2022/09/10 07:11:13;;;;;;;25.95;22.98;;;;;;;;;;5001608;28;99397;-70
2022/09/10 07:13:40;;;;;;;25.73;23.00;;;;;;;;;;4999344;28;98622;-69
2022/09/10 07:16:07;;;;;;;26.55;23.52;;;;;;;;;;4983327;28;99074;-70
2022/09/10 07:18:33;;;;;;;27.75;22.50;;;;;;;;;;4987883;28;99447;-71
2022/09/10 07:21:08;;;;;;;27.05;22.90;;;;;;;;;;4977895;28;98309;-70
2022/09/10 07:23:40;;;;;;;28.27;23.27;;;;;;;;;;4974789;28;100134;-71
2022/09/10 07:26:08;;;;;;;25.55;22.33;;;;;;;;;;4972756;28;100037;-71
2022/09/10 07:28:41;;;;;;;;;;;;;;;;;;4973904;28;99299;-71
2022/09/10 07:31:12;;;;;;;22.92;20.73;;;;;;;;;;5002226;28;130931;-70
2022/09/10 07:33:39;;;;;;;27.05;21.00;;;;;;;;;;5005527;27;98651;-72
2022/09/10 07:36:07;;;;;;;24.33;21.70;;;;;;;;;;4981514;28;101483;-70
2022/09/10 07:38:36;;;;;;;21.00;18.80;;;;;;;;;;4970129;28;99120;-70
2022/09/10 07:41:02;;;;;;;15.93;14.38;;;;;;;;;;4987347;28;98556;-71
2022/09/10 07:43:29;;;;;;;20.75;18.65;;;;;;;;;;5016163;28;99182;-71
2022/09/10 07:45:57;;;;;;;22.10;18.15;;;;;;;;;;4987135;28;100518;-70
2022/09/10 07:48:29;;;;;;;;;;;;;;;;;;4992514;28;98495;-71
2022/09/10 07:51:03;;;;;;;18.77;16.92;;;;;;;;;;4989713;28;124766;-70
2022/09/10 07:53:30;;;;;;;18.63;16.27;;;;;;;;;;4987768;28;99279;-70
2022/09/10 07:56:02;;;;;;;18.75;16.85;;;;;;;;;;4982802;28;100641;-70
2022/09/10 07:58:34;;;;;;;20.52;18.30;;;;;;;;;;4983366;28;100976;-70
2022/09/10 08:01:08;;;;;;;18.50;16.80;;;;;;;;;;5010238;27;99325;-70
2022/09/10 08:03:34;;;;;;;19.35;17.17;;;;;;;;;;4984817;28;99002;-70
2022/09/10 08:06:01;;;;;;;21.73;16.88;;;;;;;;;;4979181;28;101227;-69
2022/09/10 08:08:32;;;;;;;19.63;16.73;;;;;;;;;;4981579;28;99728;-69
2022/09/10 08:11:25;;;;;;;20.67;14.77;;;;;;;;;;4995551;28;98851;-69
2022/09/10 08:13:55;;;;;;;16.95;15.27;;;;;;;;;;4981227;28;98989;-69
2022/09/10 08:16:27;;;;;;;20.83;15.32;;;;;;;;;;4970237;28;99014;-69
2022/09/10 08:19:01;;;;;;;15.70;13.88;;;;;;;;;;4970149;28;99990;-69
2022/09/10 08:21:31;;;;;;;17.30;15.05;;;;;;;;;;4971267;28;98606;-69
2022/09/10 08:23:59;;;;;;;14.98;13.68;;;;;;;;;;4978165;28;99445;-69
2022/09/10 08:26:28;;;;;;;16.52;14.80;;;;;;;;;;4991435;28;102006;-69
2022/09/10 08:28:58;;;;;;;16.50;14.50;;;;;;;;;;4988689;28;98866;-69
2022/09/10 08:31:26;;;;;;;16.63;14.88;;;;;;;;;;4994295;28;101892;-69
2022/09/10 08:34:02;;;;;;;19.98;16.40;;;;;;;;;;4993700;28;99458;-69
2022/09/10 08:36:28;;;;;;;25.17;16.08;;;;;;;;;;4990255;28;101695;-70
2022/09/10 08:38:54;;;;;;;23.05;16.42;;;;;;;;;;4991517;28;99073;-69
2022/09/10 08:41:37;;;;;;;17.73;15.10;;;;;;;;;;4990594;28;98617;-69
2022/09/10 08:44:08;;;;;;;18.23;15.00;;;;;;;;;;5022907;28;100182;-69
2022/09/10 08:46:40;;;;;;;16.80;14.18;;;;;;;;;;4990897;28;99210;-69
2022/09/10 08:49:13;;;;;;;16.63;14.47;;;;;;;;;;4994633;28;100163;-69
2022/09/10 08:51:39;;;;;;;;;;;;;;;;;;5002307;28;101015;-69
2022/09/10 08:54:10;;;;;;;17.15;15.45;;;;;;;;;;4972213;28;100490;-69
2022/09/10 08:56:38;;;;;;;16.85;15.13;;;;;;;;;;4973672;28;98568;-69
2022/09/10 08:59:25;;;;;;;17.13;15.35;;;;;;;;;;4972612;28;100283;-69
2022/09/10 09:02:01;;;;;;;18.52;16.02;;;;;;;;;;4969279;28;97721;-69
2022/09/10 09:04:39;;;;;;;13.80;12.45;;;;;;;;;;4987311;28;100441;-68
2022/09/10 09:07:18;;;;;;;17.45;14.90;;;;;;;;;;4992097;28;101344;-69
2022/09/10 09:09:52;;;;;;;17.88;16.17;;;;;;;;;;5011579;27;99475;-69
2022/09/10 09:12:30;;;;;;;13.80;12.57;;;;;;;;;;4977921;28;101813;-69
2022/09/10 09:15:14;;;;;;;16.65;14.82;;;;;;;;;;4984972;28;99317;-70
2022/09/10 09:17:44;;;;;;;18.02;14.52;;;;;;;;;;4977396;28;99399;-69
2022/09/10 09:20:37;;;;;;;15.65;14.23;;;;;;;;;;4968267;28;101214;-69
2022/09/10 09:23:27;;;;;;;16.08;14.25;;;;;;;;;;4984705;28;99382;-69
2022/09/10 09:25:57;;;;;;;13.90;11.65;;;;;;;;;;4967175;28;99024;-69
2022/09/10 09:28:40;;;;;;;16.15;13.00;;;;;;;;;;4977799;28;98582;-69
2022/09/10 09:31:11;;;;;;;14.80;12.15;;;;;;;;;;4981068;28;100052;-71
2022/09/10 09:33:37;;;;;;;13.73;12.32;;;;;;;;;;4993203;28;100434;-72
2022/09/10 09:36:05;;;;;;;12.65;11.43;;;;;;;;;;5002323;28;102209;-72
2022/09/10 09:38:42;;;;;;;11.52;10.55;;;;;;;;;;4999071;28;99531;-72
2022/09/10 09:41:24;;;;;;;11.45;9.90;;;;;;;;;;4975505;28;101523;-72
2022/09/10 09:43:55;;;;;;;10.43;9.50;;;;;;;;;;5013852;28;99519;-72
2022/09/10 09:46:23;;;;;;;9.68;8.77;;;;;;;;;;4989088;28;99945;-72
2022/09/10 09:48:55;;;;;;;10.93;9.88;;;;;;;;;;4979500;28;100347;-70
2022/09/10 09:51:24;;;;;;;10.50;9.43;;;;;;;;;;5010180;28;98592;-70
2022/09/10 09:53:54;;;;;;;12.18;9.82;;;;;;;;;;4977936;28;100230;-71
2022/09/10 09:56:44;;;;;;;11.52;9.25;;;;;;;;;;4974984;28;99300;-71
2022/09/10 09:59:24;;;;;;;12.27;9.10;;;;;;;;;;4981791;28;98826;-71
2022/09/10 10:01:50;;;;;;;11.65;9.18;;;;;;;;;;4978315;28;99260;-71
2022/09/10 10:04:24;;;;;;;9.73;8.82;;;;;;;;;;4975685;28;100273;-70
2022/09/10 10:06:54;;;;;;;8.02;7.32;;;;;;;;;;4982864;28;100056;-70
2022/09/10 10:09:41;;;;;;;6.38;5.78;;;;;;;;;;4985127;28;99509;-70
2022/09/10 10:12:17;;;;;;;5.35;4.85;;;;;;;;;;4993011;28;98610;-70
2022/09/10 10:14:43;;;;;;;5.45;4.85;;;;;;;;;;4975770;28;100405;-71
2022/09/10 10:17:28;;;;;;;4.03;3.50;;;;;;;;;;4970365;28;100994;-72
2022/09/10 10:19:57;;;;;;;5.57;4.00;;;;;;;;;;4979199;28;97876;-70
2022/09/10 10:22:25;;;;;;;4.28;3.80;;;;;;;;;;4975964;28;98953;-70
2022/09/10 10:24:52;;;;;;;3.65;2.80;;;;;;;;;;4989955;28;99518;-70
2022/09/10 10:27:34;;;;;;;3.25;3.00;;;;;;;;;;4974768;28;99223;-69
2022/09/10 10:30:06;;;;;;;4.15;2.78;;;;;;;;;;4970895;28;99591;-69
2022/09/10 10:32:33;;;;;;;;;;;;;;;;;;4973146;28;99889;-71
2022/09/10 10:35:18;;;;;;;4.68;3.90;;;;;;;;;;4970736;28;129117;-71
2022/09/10 10:37:59;;;;;;;5.05;4.55;;;;;;;;;;4982590;28;100540;-69
2022/09/10 10:40:32;;;;;;;5.25;4.75;;;;;;;;;;4975472;28;98779;-69
2022/09/10 10:43:08;;;;;;;4.55;4.13;;;;;;;;;;4983843;28;98932;-70
2022/09/10 10:45:37;;;;;;;3.70;3.50;;;;;;;;;;4970854;28;99288;-69
2022/09/10 10:48:22;;;;;;;4.63;3.45;;;;;;;;;;4969598;28;98873;-72
2022/09/10 10:50:53;;;;;;;5.15;3.35;;;;;;;;;;4977994;28;99015;-72
2022/09/10 10:53:39;;;;;;;3.63;3.38;;;;;;;;;;4979336;28;99956;-70
2022/09/10 10:56:16;;;;;;;3.35;3.00;;;;;;;;;;4985630;28;99769;-70
2022/09/10 10:58:50;;;;;;;3.17;2.65;;;;;;;;;;4989629;28;99564;-70
2022/09/10 11:01:21;;;;;;;6.95;2.33;;;;;;;;;;4984446;28;98419;-70
2022/09/10 11:03:50;;;;;;;5.82;2.88;;;;;;;;;;4969383;28;98981;-70
2022/09/10 11:06:22;;;;;;;3.22;2.92;;;;;;;;;;4970681;28;99563;-70
2022/09/10 11:08:52;;;;;;;2.83;2.63;;;;;;;;;;4970427;28;98676;-70
2022/09/10 11:11:31;;;;;;;2.70;2.50;;;;;;;;;;4973332;28;100765;-70
2022/09/10 11:14:00;;;;;;;1.98;1.83;;;;;;;;;;4970113;28;98540;-71
2022/09/10 11:16:27;;;;;;;2.40;2.20;;;;;;;;;;4980619;28;99245;-71
2022/09/10 11:19:01;;;;;;;4.05;2.45;;;;;;;;;;4988791;28;100053;-70
2022/09/10 11:21:30;;;;;;;4.15;2.60;;;;;;;;;;4990377;28;98510;-71
2022/09/10 11:23:59;;;;;;;2.05;1.90;;;;;;;;;;4990001;28;99880;-70
2022/09/10 11:26:44;;;;;;;2.05;1.90;;;;;;;;;;4979458;28;100478;-71
2022/09/10 11:29:30;;;;;;;4.07;2.20;;;;;;;;;;4970690;28;98612;-71
2022/09/10 11:31:56;;;;;;;4.00;2.47;;;;;;;;;;4972066;28;99037;-71
2022/09/10 11:34:27;;;;;;;3.00;2.30;;;;;;;;;;4976983;28;99869;-70
2022/09/10 11:36:53;;;;;;;3.75;2.15;;;;;;;;;;4974064;28;99279;-72
2022/09/10 11:39:23;;;;;;;2.42;1.92;;;;;;;;;;4973090;28;99616;-71
2022/09/10 11:41:51;;;;;;;2.42;2.15;;;;;;;;;;4973765;28;98558;-72
2022/09/10 11:44:17;;;;;;;4.35;1.92;;;;;;;;;;4990867;28;100015;-71
2022/09/10 11:46:48;;;;;;;3.53;2.35;;;;;;;;;;4991866;28;100361;-71
2022/09/10 11:49:17;;;;;;;2.30;2.17;;;;;;;;;;4979310;28;99332;-71
2022/09/10 11:51:44;;;;;;;2.38;1.90;;;;;;;;;;4992535;28;101255;-72
2022/09/10 11:54:12;;;;;;;5.82;2.50;;;;;;;;;;4978194;28;99355;-71
2022/09/10 11:56:42;;;;;;;3.50;2.55;;;;;;;;;;4981894;28;98546;-70
2022/09/10 11:59:14;;;;;;;2.70;2.50;;;;;;;;;;4977308;28;100640;-70
2022/09/10 12:01:48;;;;;;;5.43;2.65;;;;;;;;;;4989122;28;97813;-71
2022/09/10 12:04:21;;;;;;;4.47;2.92;;;;;;;;;;4987100;28;98498;-71
2022/09/10 12:06:53;;;;;;;5.35;2.83;;;;;;;;;;4972853;28;100280;-72
2022/09/10 12:09:39;;;;;;;4.72;3.13;;;;;;;;;;4972107;28;99371;-70
2022/09/10 12:12:13;;;;;;;3.00;2.78;;;;;;;;;;4978771;28;99813;-71
2022/09/10 12:14:39;;;;;;;2.90;2.35;;;;;;;;;;4975637;28;100194;-71
2022/09/10 12:17:13;;;;;;;5.72;2.90;;;;;;;;;;4972944;28;99161;-71
2022/09/10 12:19:45;;;;;;;4.53;2.65;;;;;;;;;;4980173;28;99846;-72
2022/09/10 12:22:20;;;;;;;3.90;1.98;;;;;;;;;;4990555;28;99428;-71
2022/09/10 12:24:51;;;;;;;2.75;1.40;;;;;;;;;;4984818;28;99005;-69
2022/09/10 12:27:19;;;;;;;2.40;1.38;;;;;;;;;;4983808;28;98804;-70
2022/09/10 12:29:46;;;;;;;2.00;1.80;;;;;;;;;;4980901;28;99143;-69
2022/09/10 12:32:24;;;;;;;2.47;1.50;;;;;;;;;;4975474;28;98934;-69
2022/09/10 12:35:11;;;;;;;2.88;2.05;;;;;;;;;;4973308;28;100132;-70
2022/09/10 12:37:38;;;;;;;3.03;2.13;;;;;;;;;;4972349;28;99554;-70
2022/09/10 12:40:23;;;;;;;2.20;2.00;;;;;;;;;;4989520;28;99071;-71
2022/09/10 12:42:50;;;;;;;3.30;2.42;;;;;;;;;;4975090;28;99634;-70
2022/09/10 12:45:36;;;;;;;2.42;2.20;;;;;;;;;;4971476;28;100051;-69
2022/09/10 12:48:10;;;;;;;4.18;2.65;;;;;;;;;;4971399;28;100364;-71
2022/09/10 12:50:44;;;;;;;2.72;2.53;;;;;;;;;;4978065;28;99356;-69
2022/09/10 12:53:13;;;;;;;2.80;2.60;;;;;;;;;;4973913;28;99978;-69
2022/09/10 12:55:52;;;;;;;4.55;2.60;;;;;;;;;;4973558;28;99498;-70
2022/09/10 12:58:32;;;;;;;12.38;2.83;;;;;;;;;;4976625;28;100400;-69
2022/09/10 13:01:04;;;;;;;10.75;3.40;;;;;;;;;;4970968;28;99386;-71
2022/09/10 13:03:31;;;;;;;3.53;2.75;;;;;;;;;;4989757;28;99514;-72
2022/09/10 13:06:03;;;;;;;2.47;2.20;;;;;;;;;;4991436;28;98529;-72
2022/09/10 13:08:43;;;;;;;5.25;2.85;;;;;;;;;;4971833;28;99368;-71
2022/09/10 13:11:14;;;;;;;2.97;2.78;;;;;;;;;;4987949;28;98534;-71
2022/09/10 13:13:43;;;;;;;9.18;3.03;;;;;;;;;;4978551;28;100284;-69
2022/09/10 13:16:17;;;;;;;4.63;3.35;;;;;;;;;;4971230;28;99467;-69
2022/09/10 13:18:45;;;;;;;3.50;3.20;;;;;;;;;;4971484;28;98301;-69
2022/09/10 13:21:23;;;;;;;3.17;2.92;;;;;;;;;;4976499;28;99453;-68
2022/09/10 13:23:51;;;;;;;4.47;2.95;;;;;;;;;;4989902;28;100778;-69
2022/09/10 13:26:37;;;;;;;4.90;2.95;;;;;;;;;;4994103;28;99967;-68
2022/09/10 13:29:10;;;;;;;4.38;3.17;;;;;;;;;;4975532;28;99618;-68
2022/09/10 13:31:42;;;;;;;2.85;2.60;;;;;;;;;;4980118;28;100234;-69
2022/09/10 13:34:12;;;;;;;3.53;3.03;;;;;;;;;;4972314;28;99062;-69
2022/09/10 13:36:50;;;;;;;3.97;2.83;;;;;;;;;;4981226;28;99350;-68
2022/09/10 13:39:25;;;;;;;4.35;3.83;;;;;;;;;;4971180;28;100394;-69
2022/09/10 13:42:16;;;;;;;7.30;5.80;;;;;;;;;;4984607;28;99488;-69
2022/09/10 13:45:00;;;;;;;6.30;5.10;;;;;;;;;;4981975;28;99556;-69
2022/09/10 13:47:36;;;;;;;7.57;5.90;;;;;;;;;;4971665;28;100642;-69
2022/09/10 13:50:08;;;;;;;12.35;6.28;;;;;;;;;;4986668;28;100050;-69
2022/09/10 13:52:35;;;;;;;10.30;5.70;;;;;;;;;;4976228;28;99331;-68
2022/09/10 13:55:04;;;;;;;6.63;5.35;;;;;;;;;;4998977;28;100414;-68
2022/09/10 13:57:32;;;;;;;9.02;5.72;;;;;;;;;;4986714;28;99155;-68
2022/09/10 14:00:03;;;;;;;5.60;4.95;;;;;;;;;;4972327;28;98811;-69
2022/09/10 14:02:43;;;;;;;5.18;4.65;;;;;;;;;;4972712;28;100161;-68
2022/09/10 14:05:27;;;;;;;7.43;4.75;;;;;;;;;;4971103;28;100098;-69
2022/09/10 14:07:56;;;;;;;5.32;4.00;;;;;;;;;;4971322;28;99117;-69
2022/09/10 14:10:23;;;;;;;7.32;5.15;;;;;;;;;;4985553;28;99107;-69
2022/09/10 14:12:50;;;;;;;7.18;4.78;;;;;;;;;;4975881;28;99615;-68
2022/09/10 14:15:19;;;;;;;8.68;4.57;;;;;;;;;;4981126;28;100295;-69
2022/09/10 14:17:49;;;;;;;5.22;4.68;;;;;;;;;;4985671;28;101158;-69
2022/09/10 14:20:22;;;;;;;7.28;5.15;;;;;;;;;;4970310;28;101045;-68
2022/09/10 14:22:51;;;;;;;7.03;4.47;;;;;;;;;;4972280;28;99987;-68
2022/09/10 14:25:30;;;;;;;6.47;4.93;;;;;;;;;;4976764;28;100198;-68
2022/09/10 14:28:14;;;;;;;5.65;3.90;;;;;;;;;;4970831;28;99563;-68
2022/09/10 14:30:48;;;;;;;3.22;2.88;;;;;;;;;;4973301;28;99278;-68
2022/09/10 14:33:20;;;;;;;5.43;2.95;;;;;;;;;;4970933;28;99172;-68
2022/09/10 14:35:48;;;;;;;4.57;2.45;;;;;;;;;;4973212;28;98348;-68
2022/09/10 14:38:20;;;;;;;5.30;3.45;;;;;;;;;;4969544;28;99652;-67
2022/09/10 14:40:46;;;;;;;;;;;;;;;;;;4989959;28;98738;-68
2022/09/10 14:43:26;;;;;;;6.07;4.30;;;;;;;;;;4972755;28;129800;-68
2022/09/10 14:45:52;;;;;;;6.15;4.45;;;;;;;;;;4975624;28;99499;-69
2022/09/10 14:48:27;;;;;;;5.05;4.43;;;;;;;;;;4970772;28;98591;-69